createdAt,value
2022-08-29T00:01:51.688Z,16.3
2022-08-29T00:17:01.434Z,15.9
2022-08-29T00:32:11.000Z,15.6
2022-08-29T00:47:20.390Z,15.4
2022-08-29T01:02:29.610Z,15.3
2022-08-29T01:17:39.145Z,15.2
2022-08-29T01:32:48.556Z,15
2022-08-29T01:47:59.898Z,14.9
2022-08-29T02:03:12.962Z,14.7
2022-08-29T02:18:24.709Z,14.6
2022-08-29T02:33:34.350Z,14.4
2022-08-29T02:48:47.621Z,14.2
2022-08-29T03:04:11.229Z,14.3
2022-08-29T03:19:20.450Z,14.4
2022-08-29T03:34:29.640Z,14.4
2022-08-29T03:49:39.685Z,14.4
2022-08-29T04:04:49.003Z,14.4
2022-08-29T04:19:58.308Z,14.4
2022-08-29T04:35:07.484Z,14.5
2022-08-29T04:51:55.830Z,15.2
2022-08-29T05:07:07.131Z,14.8
2022-08-29T05:22:16.313Z,14.9
2022-08-29T05:37:26.125Z,15
2022-08-29T05:52:35.867Z,15.3
2022-08-29T06:07:49.921Z,15.5
2022-08-29T06:23:02.606Z,15.7
2022-08-29T06:38:14.116Z,15.7
2022-08-29T06:53:29.868Z,15.9
2022-08-29T07:08:54.814Z,16.1
2022-08-29T07:24:06.214Z,16.1
2022-08-29T07:39:16.575Z,16.3
2022-08-29T07:54:26.127Z,16.5
2022-08-29T08:09:38.519Z,16.6
2022-08-29T08:24:48.375Z,16.8
2022-08-29T08:39:57.807Z,16.9
2022-08-29T08:55:07.977Z,17.1
2022-08-29T09:10:18.220Z,17.6
2022-08-29T09:25:28.630Z,18.1
2022-08-29T09:40:38.643Z,18.4
2022-08-29T09:55:48.878Z,18.8
2022-08-29T10:11:01.080Z,19
2022-08-29T10:26:11.310Z,19.3
2022-08-29T10:41:25.234Z,19.7
2022-08-29T10:56:37.705Z,20.1
2022-08-29T11:11:48.665Z,20.4
2022-08-29T11:26:58.742Z,20.7
2022-08-29T11:42:08.460Z,21.1
2022-08-29T11:57:21.712Z,21
2022-08-29T12:12:31.597Z,21.7
2022-08-29T12:27:42.048Z,22.3
2022-08-29T12:42:51.652Z,22.4
2022-08-29T12:58:00.919Z,22.9
2022-08-29T13:13:11.034Z,23.1
2022-08-29T13:28:21.502Z,22.7
2022-08-29T13:43:31.231Z,23.6
2022-08-29T13:58:41.798Z,24.4
2022-08-29T14:13:51.281Z,23.6
2022-08-29T14:29:03.224Z,23.5
2022-08-29T14:44:14.038Z,24.2
2022-08-29T14:59:30.537Z,24
2022-08-29T15:14:40.688Z,25.2
2022-08-29T15:29:50.019Z,24.7
2022-08-29T15:44:59.949Z,24.2
2022-08-29T16:01:25.915Z,24.2
2022-08-29T16:16:36.894Z,23.8
2022-08-29T16:31:46.264Z,23.5
2022-08-29T16:46:54.996Z,23.1
2022-08-29T17:02:04.432Z,23
2022-08-29T17:17:14.174Z,22.7
2022-08-29T17:32:24.139Z,22.4
2022-08-29T17:47:33.752Z,22.2
2022-08-29T18:02:43.222Z,22
2022-08-29T18:17:52.924Z,21.8
2022-08-29T18:33:02.482Z,21.6
2022-08-29T18:48:11.962Z,21.4
2022-08-29T19:03:22.249Z,21.2
2022-08-29T19:18:31.532Z,21
2022-08-29T19:33:40.752Z,20.7
2022-08-29T19:48:50.878Z,20.5
2022-08-29T20:04:02.893Z,20.3
2022-08-29T20:19:13.058Z,20.1
2022-08-29T20:34:21.773Z,19.9
2022-08-29T20:49:30.750Z,19.6
2022-08-29T21:04:39.956Z,19.4
2022-08-29T21:20:01.674Z,19.3
2022-08-29T21:35:10.990Z,19
2022-08-29T21:50:20.114Z,18.9
2022-08-29T22:05:30.982Z,18.7
2022-08-29T22:20:39.999Z,18.6
2022-08-29T22:35:49.337Z,18.4
2022-08-29T22:50:58.790Z,18.3
2022-08-29T23:06:08.281Z,18.2
2022-08-29T23:21:17.234Z,18.1
2022-08-29T23:36:27.565Z,17.9
2022-08-29T23:51:36.828Z,17.8
